Time;durP1;ratioP1;P1;durP2;ratioP2;P2;SDS_P1;SDS_P2;PMS_P1;PMS_P2;Temp;Humidity;BMP_temperature;BMP_pressure;BME280_temperature;BME280_humidity;BME280_pressure;Samples;Min_cycle;Max_cycle;Signal;HPM_P1;HPM_P2
2023/11/07 00:00:45;;;;;;;2.58;2.42;;;8.50;99.90;;;;;;5042312;28;20803;-64
2023/11/07 00:03:12;;;;;;;2.53;2.33;;;8.50;99.90;;;;;;5049903;28;20297;-63
2023/11/07 00:05:39;;;;;;;1.80;1.63;;;8.50;99.90;;;;;;5047895;28;20206;-63
2023/11/07 00:08:06;;;;;;;2.67;1.83;;;8.50;99.90;;;;;;5048531;28;20709;-63
2023/11/07 00:10:33;;;;;;;2.15;1.83;;;8.60;99.90;;;;;;5048697;28;20212;-63
2023/11/07 00:12:59;;;;;;;1.88;1.73;;;8.60;99.90;;;;;;5068995;22;20238;-64
2023/11/07 00:15:28;;;;;;;2.30;2.10;;;8.70;99.90;;;;;;5048562;28;20210;-65
2023/11/07 00:17:55;;;;;;;2.13;2.00;;;8.70;99.90;;;;;;5049028;28;20213;-65
2023/11/07 00:20:22;;;;;;;1.90;1.80;;;8.80;99.90;;;;;;5049660;28;20229;-65
2023/11/07 00:22:49;;;;;;;1.73;1.15;;;8.80;99.90;;;;;;5050850;28;20285;-65
2023/11/07 00:25:16;;;;;;;1.63;1.52;;;8.90;99.90;;;;;;5050801;28;20305;-64
2023/11/07 00:27:43;;;;;;;2.28;1.50;;;8.90;99.90;;;;;;5051060;28;20212;-65
2023/11/07 00:30:11;;;;;;;3.50;2.03;;;8.90;99.90;;;;;;5050930;28;20594;-64
2023/11/07 00:32:39;;;;;;;2.43;2.30;;;9.00;99.90;;;;;;5043234;28;20474;-64
2023/11/07 00:35:07;;;;;;;2.60;2.40;;;9.00;99.90;;;;;;5030825;28;20454;-65
2023/11/07 00:37:34;;;;;;;2.25;2.10;;;9.10;99.90;;;;;;5030998;28;20206;-64
2023/11/07 00:40:01;;;;;;;4.60;3.73;;;9.10;99.90;;;;;;5030729;28;20689;-65
2023/11/07 00:42:28;;;;;;;2.58;2.13;;;9.10;99.90;;;;;;5030833;28;20572;-64
2023/11/07 00:44:55;;;;;;;2.97;2.07;;;9.10;99.90;;;;;;5030641;28;20265;-66
2023/11/07 00:47:22;;;;;;;3.75;1.20;;;9.10;99.90;;;;;;5030618;28;20456;-65
2023/11/07 00:49:50;;;;;;;2.25;1.92;;;9.10;99.90;;;;;;5030616;28;20213;-65
2023/11/07 00:52:18;;;;;;;1.73;1.63;;;9.10;99.90;;;;;;5031006;28;20223;-65
2023/11/07 00:54:46;;;;;;;1.53;1.30;;;9.10;99.90;;;;;;5030296;28;20215;-65
2023/11/07 00:57:13;;;;;;;1.90;1.40;;;9.10;99.90;;;;;;5031056;28;20536;-65
2023/11/07 00:59:40;;;;;;;2.50;1.67;;;9.10;99.90;;;;;;5034290;28;20537;-65
2023/11/07 01:02:07;;;;;;;1.58;1.27;;;9.10;99.90;;;;;;5033759;28;20231;-65
2023/11/07 01:04:34;;;;;;;2.70;1.73;;;9.10;99.90;;;;;;5034289;28;20214;-65
2023/11/07 01:07:02;;;;;;;2.83;2.63;;;9.10;99.90;;;;;;5034853;28;20966;-64
2023/11/07 01:09:29;;;;;;;1.50;1.40;;;9.10;99.90;;;;;;5039356;28;20210;-65
2023/11/07 01:11:56;;;;;;;1.77;1.23;;;9.00;99.90;;;;;;5034050;28;20213;-65
2023/11/07 01:14:24;;;;;;;1.57;1.47;;;9.00;99.90;;;;;;5040744;28;20549;-65
2023/11/07 01:16:51;;;;;;;2.00;1.83;;;9.00;99.90;;;;;;5033130;28;20446;-66
2023/11/07 01:19:20;;;;;;;2.77;1.97;;;8.90;99.90;;;;;;5033387;28;20200;-65
2023/11/07 01:21:47;;;;;;;1.52;1.40;;;8.90;99.90;;;;;;5033316;28;20477;-64
2023/11/07 01:24:15;;;;;;;2.00;1.80;;;8.90;99.90;;;;;;5033043;28;20206;-65
2023/11/07 01:26:42;;;;;;;1.67;1.40;;;8.90;99.90;;;;;;5031242;28;20833;-65
2023/11/07 01:29:09;;;;;;;1.65;1.42;;;8.90;99.90;;;;;;5031469;28;20453;-64
2023/11/07 01:31:36;;;;;;;1.80;1.00;;;8.90;99.90;;;;;;5037243;28;20218;-65
2023/11/07 01:34:03;;;;;;;1.10;1.10;;;8.90;99.90;;;;;;5053699;28;20222;-65
2023/11/07 01:36:29;;;;;;;1.65;1.55;;;9.00;99.90;;;;;;5053391;28;20312;-65
2023/11/07 01:38:56;;;;;;;1.55;1.20;;;8.90;99.90;;;;;;5053767;28;20217;-65
2023/11/07 01:41:24;;;;;;;1.08;1.08;;;9.00;99.90;;;;;;5053408;28;20226;-66
2023/11/07 01:43:51;;;;;;;1.50;1.40;;;9.00;99.90;;;;;;5053588;28;20720;-65
2023/11/07 01:46:18;;;;;;;3.30;2.00;;;9.00;99.90;;;;;;5053306;28;20209;-65
2023/11/07 01:48:45;;;;;;;1.42;1.30;;;8.90;99.90;;;;;;5053611;28;20768;-66
2023/11/07 01:51:12;;;;;;;1.55;1.30;;;8.90;99.90;;;;;;5053373;28;20627;-65
2023/11/07 01:53:41;;;;;;;1.65;1.55;;;8.90;99.90;;;;;;5053137;28;20226;-65
2023/11/07 01:56:08;;;;;;;1.27;1.27;;;8.90;99.90;;;;;;5052969;28;20202;-65
2023/11/07 01:58:37;;;;;;;2.25;1.50;;;8.90;99.90;;;;;;5053409;28;20214;-66
2023/11/07 02:01:05;;;;;;;1.30;1.20;;;9.00;99.90;;;;;;5053185;28;20222;-66
2023/11/07 02:03:32;;;;;;;1.70;1.20;;;8.90;99.90;;;;;;5053166;28;20272;-65
2023/11/07 02:05:59;;;;;;;1.08;1.08;;;9.00;99.90;;;;;;5052855;28;20590;-66
2023/11/07 02:08:26;;;;;;;2.45;2.35;;;9.00;99.90;;;;;;5052894;28;20704;-65
2023/11/07 02:10:53;;;;;;;6.28;1.92;;;9.00;99.90;;;;;;5052586;28;20612;-65
2023/11/07 02:13:20;;;;;;;1.20;1.10;;;9.00;99.90;;;;;;5052749;28;20249;-66
2023/11/07 02:15:48;;;;;;;2.93;1.60;;;9.00;99.90;;;;;;5039929;28;20720;-65
2023/11/07 02:18:15;;;;;;;0.80;0.80;;;9.00;99.90;;;;;;5032729;28;20456;-65
2023/11/07 02:20:42;;;;;;;1.67;1.58;;;9.00;99.90;;;;;;5032893;28;20445;-65
2023/11/07 02:23:10;;;;;;;2.83;2.73;;;9.00;99.90;;;;;;5032545;28;20237;-65
2023/11/07 02:25:39;;;;;;;1.00;1.00;;;9.00;99.90;;;;;;5032550;28;20536;-65
2023/11/07 02:28:06;;;;;;;1.45;1.35;;;9.10;99.90;;;;;;5032769;28;20450;-65
2023/11/07 02:30:33;;;;;;;1.17;0.93;;;9.10;99.90;;;;;;5033121;28;20600;-65
2023/11/07 02:33:04;;;;;;;2.17;1.33;;;9.10;99.90;;;;;;5032722;28;20929;-65
2023/11/07 02:35:32;;;;;;;1.40;1.30;;;9.10;99.90;;;;;;5032331;28;20647;-65
2023/11/07 02:37:59;;;;;;;4.90;1.33;;;9.10;99.90;;;;;;5032589;28;20446;-66
2023/11/07 02:40:26;;;;;;;1.30;1.10;;;9.10;99.90;;;;;;5032722;28;20446;-65
2023/11/07 02:42:54;;;;;;;1.55;0.93;;;9.10;99.90;;;;;;5032563;28;20491;-66
2023/11/07 02:45:21;;;;;;;1.20;1.20;;;9.10;99.90;;;;;;5032471;28;20591;-65
2023/11/07 02:47:48;;;;;;;3.85;1.70;;;9.10;99.90;;;;;;5032494;28;20453;-64
2023/11/07 02:50:15;;;;;;;1.00;1.00;;;9.10;99.90;;;;;;5031954;28;20206;-66
2023/11/07 02:52:42;;;;;;;2.08;1.35;;;9.10;99.90;;;;;;5032399;28;20466;-65
2023/11/07 02:55:09;;;;;;;2.40;1.48;;;9.10;99.90;;;;;;5032126;28;20358;-65
2023/11/07 02:57:35;;;;;;;1.45;1.23;;;9.10;99.90;;;;;;5032127;28;20634;-66
2023/11/07 03:00:04;;;;;;;1.33;1.23;;;9.10;99.90;;;;;;5032102;28;20211;-65
2023/11/07 03:02:35;;;;;;;1.00;1.00;;;9.10;99.90;;;;;;5031915;28;20632;-66
2023/11/07 03:05:04;;;;;;;3.13;1.27;;;9.10;99.90;;;;;;5032144;28;20214;-65
2023/11/07 03:07:31;;;;;;;1.00;0.97;;;9.10;99.90;;;;;;5031943;28;20549;-65
2023/11/07 03:09:57;;;;;;;2.50;1.87;;;9.10;99.90;;;;;;5031706;28;20446;-65
2023/11/07 03:12:24;;;;;;;1.15;1.02;;;9.10;99.90;;;;;;5031761;28;20915;-65
2023/11/07 03:14:51;;;;;;;1.50;1.40;;;9.10;99.90;;;;;;5031721;28;20233;-65
2023/11/07 03:17:19;;;;;;;1.65;1.55;;;9.10;99.90;;;;;;5031451;28;20448;-65
2023/11/07 03:19:51;;;;;;;2.83;1.92;;;9.10;99.90;;;;;;5031809;28;20242;-65
2023/11/07 03:22:19;;;;;;;1.52;1.20;;;9.10;99.90;;;;;;5031374;28;20258;-65
2023/11/07 03:24:45;;;;;;;0.95;0.82;;;9.10;99.90;;;;;;5045577;28;20264;-65
2023/11/07 03:27:12;;;;;;;1.92;1.17;;;9.10;99.90;;;;;;5051360;28;20795;-65
2023/11/07 03:29:39;;;;;;;1.40;0.90;;;9.10;99.90;;;;;;5051742;28;20667;-65
2023/11/07 03:32:07;;;;;;;1.63;0.90;;;9.10;99.90;;;;;;5050961;28;20508;-65
2023/11/07 03:34:35;;;;;;;1.58;1.40;;;9.10;99.90;;;;;;5051277;28;20209;-65
2023/11/07 03:37:02;;;;;;;1.25;1.05;;;9.10;99.90;;;;;;5051146;28;20293;-65
2023/11/07 03:39:28;;;;;;;2.15;1.17;;;9.10;99.90;;;;;;5051203;28;20300;-65
2023/11/07 03:41:55;;;;;;;1.30;1.03;;;9.10;99.90;;;;;;5051293;28;20244;-64
2023/11/07 03:44:22;;;;;;;1.17;0.90;;;9.10;99.90;;;;;;5051188;28;20539;-65
2023/11/07 03:46:49;;;;;;;1.67;1.58;;;9.10;99.90;;;;;;5051106;28;20206;-65
2023/11/07 03:49:16;;;;;;;4.10;1.50;;;9.10;99.90;;;;;;5051498;28;20907;-65
2023/11/07 03:51:45;;;;;;;1.70;1.20;;;9.10;99.90;;;;;;5051268;28;20202;-65
2023/11/07 03:54:13;;;;;;;1.25;1.15;;;9.10;99.90;;;;;;5051286;28;20587;-65
2023/11/07 03:56:40;;;;;;;2.70;1.40;;;9.10;99.90;;;;;;5050901;28;20276;-66
2023/11/07 03:59:07;;;;;;;0.88;0.88;;;9.10;99.90;;;;;;5050920;28;20527;-65
2023/11/07 04:01:37;;;;;;;1.43;1.13;;;9.10;99.90;;;;;;5051255;28;20229;-65
2023/11/07 04:04:05;;;;;;;1.98;1.67;;;9.10;99.90;;;;;;5051268;28;20475;-66
2023/11/07 04:06:31;;;;;;;0.80;0.73;;;9.10;99.90;;;;;;5049778;28;20293;-66
2023/11/07 04:09:00;;;;;;;1.65;1.55;;;9.10;99.90;;;;;;5010454;28;20566;-65
2023/11/07 04:11:28;;;;;;;0.88;0.88;;;9.10;99.90;;;;;;5011101;28;20207;-65
2023/11/07 04:13:54;;;;;;;1.40;0.95;;;9.10;99.90;;;;;;5010137;28;20235;-65
2023/11/07 04:16:21;;;;;;;1.38;1.15;;;9.20;99.90;;;;;;5010876;28;20218;-65
2023/11/07 04:18:49;;;;;;;0.95;0.77;;;9.20;99.90;;;;;;5011409;28;20301;-65
2023/11/07 04:21:16;;;;;;;1.33;1.20;;;9.10;99.90;;;;;;5011187;28;20208;-65
2023/11/07 04:23:42;;;;;;;1.42;1.20;;;9.10;99.90;;;;;;5011028;28;20238;-65
2023/11/07 04:26:11;;;;;;;1.13;1.02;;;9.10;99.90;;;;;;5011162;28;20208;-65
2023/11/07 04:28:39;;;;;;;0.98;0.95;;;9.10;99.90;;;;;;5011122;28;20223;-64
2023/11/07 04:31:07;;;;;;;1.37;1.30;;;9.10;99.90;;;;;;5010982;28;20208;-65
2023/11/07 04:33:34;;;;;;;2.13;1.42;;;9.10;99.90;;;;;;5013282;28;20566;-65
2023/11/07 04:36:01;;;;;;;3.63;0.93;;;9.10;99.90;;;;;;5014722;28;20207;-65
2023/11/07 04:38:30;;;;;;;1.30;0.90;;;9.10;99.90;;;;;;5015176;28;20212;-65
2023/11/07 04:40:57;;;;;;;0.80;0.70;;;9.00;99.90;;;;;;5015180;28;20458;-64
2023/11/07 04:43:29;;;;;;;0.90;0.90;;;9.00;99.90;;;;;;5015202;28;21179;-65
2023/11/07 04:45:56;;;;;;;1.38;0.95;;;9.00;99.90;;;;;;5014951;28;20254;-65
2023/11/07 04:48:23;;;;;;;2.30;1.00;;;8.90;99.90;;;;;;5015162;28;20223;-65
2023/11/07 04:50:50;;;;;;;2.47;1.33;;;8.90;99.90;;;;;;5014748;28;21076;-65
2023/11/07 04:53:16;;;;;;;1.23;0.95;;;8.80;99.90;;;;;;5014880;28;20223;-65
2023/11/07 04:55:43;;;;;;;1.40;1.30;;;8.80;99.90;;;;;;5014656;28;20595;-65
2023/11/07 04:58:12;;;;;;;0.93;0.90;;;8.70;99.90;;;;;;5014568;28;20218;-65
2023/11/07 05:00:40;;;;;;;1.42;1.30;;;8.70;99.90;;;;;;5014597;28;20630;-65
2023/11/07 05:03:07;;;;;;;1.20;1.10;;;8.70;99.90;;;;;;5014502;28;20239;-65
2023/11/07 05:05:34;;;;;;;1.55;1.13;;;8.60;99.90;;;;;;5014424;28;20333;-65
2023/11/07 05:08:01;;;;;;;1.10;1.00;;;8.60;99.90;;;;;;5014696;28;20212;-65
2023/11/07 05:10:27;;;;;;;1.20;1.10;;;8.60;99.90;;;;;;5014544;28;20303;-65
2023/11/07 05:12:54;;;;;;;1.40;1.30;;;8.50;99.90;;;;;;5014012;28;20596;-64
2023/11/07 05:15:21;;;;;;;2.17;1.48;;;8.50;99.90;;;;;;5013930;28;20208;-65
2023/11/07 05:17:51;;;;;;;1.65;1.30;;;8.50;99.90;;;;;;5014121;28;20208;-65
2023/11/07 05:20:19;;;;;;;1.48;1.38;;;8.50;99.90;;;;;;5014161;28;20208;-65
2023/11/07 05:22:46;;;;;;;1.00;1.00;;;8.50;99.90;;;;;;5014207;28;20231;-65
2023/11/07 05:25:13;;;;;;;4.78;1.38;;;8.40;99.90;;;;;;5014119;28;20204;-64
2023/11/07 05:27:40;;;;;;;1.10;1.10;;;8.40;99.90;;;;;;5013997;28;20262;-65
2023/11/07 05:30:08;;;;;;;4.22;1.35;;;8.30;99.90;;;;;;5013863;28;20298;-65
2023/11/07 05:32:36;;;;;;;1.17;1.08;;;8.20;99.90;;;;;;5013927;28;20226;-65
2023/11/07 05:35:05;;;;;;;4.10;1.38;;;8.20;99.90;;;;;;5014068;28;20298;-65
2023/11/07 05:37:32;;;;;;;3.30;1.42;;;8.20;99.90;;;;;;5013954;28;20211;-65
2023/11/07 05:39:58;;;;;;;4.35;1.30;;;8.10;99.90;;;;;;5014133;28;20269;-65
2023/11/07 05:42:26;;;;;;;0.82;0.82;;;8.10;99.90;;;;;;5013792;28;20318;-65
2023/11/07 05:44:53;;;;;;;1.83;1.73;;;8.00;99.90;;;;;;5012395;28;20315;-65
2023/11/07 05:47:19;;;;;;;2.42;1.02;;;8.00;99.90;;;;;;5013307;28;20692;-65
2023/11/07 05:49:46;;;;;;;0.80;0.80;;;7.90;99.90;;;;;;5013748;28;20214;-65
2023/11/07 05:52:14;;;;;;;1.20;1.10;;;7.80;99.90;;;;;;5013801;28;20642;-65
2023/11/07 05:54:41;;;;;;;2.05;0.90;;;7.80;99.90;;;;;;5013515;28;20753;-65
2023/11/07 05:57:08;;;;;;;1.77;1.67;;;7.70;99.90;;;;;;5013322;28;20302;-65
2023/11/07 05:59:36;;;;;;;1.15;1.15;;;7.70;99.90;;;;;;5013411;28;20211;-65
2023/11/07 06:02:03;;;;;;;1.55;1.45;;;7.60;99.90;;;;;;5013225;28;20215;-65
2023/11/07 06:04:32;;;;;;;1.88;1.20;;;7.60;99.90;;;;;;5013507;28;20215;-65
2023/11/07 06:06:59;;;;;;;1.27;1.27;;;7.50;99.90;;;;;;5013011;28;20303;-65
2023/11/07 06:09:28;;;;;;;3.00;1.00;;;7.50;99.90;;;;;;5013458;28;20582;-65
2023/11/07 06:11:55;;;;;;;1.67;1.27;;;7.40;99.90;;;;;;5013217;28;20208;-65
2023/11/07 06:14:22;;;;;;;1.02;1.02;;;7.40;99.90;;;;;;5047684;22;20315;-63
2023/11/07 06:16:49;;;;;;;1.45;1.35;;;7.30;99.90;;;;;;5024066;28;20294;-63
2023/11/07 06:19:16;;;;;;;1.65;1.48;;;7.30;99.90;;;;;;5033148;28;20587;-63
2023/11/07 06:21:43;;;;;;;1.20;1.10;;;7.20;99.90;;;;;;5033016;28;20604;-63
2023/11/07 06:24:10;;;;;;;2.17;1.85;;;7.20;99.90;;;;;;5032777;28;20231;-63
2023/11/07 06:26:38;;;;;;;1.23;1.13;;;7.20;99.90;;;;;;5032490;28;20205;-63
2023/11/07 06:29:05;;;;;;;2.15;1.65;;;7.20;99.90;;;;;;5032591;28;20207;-63
2023/11/07 06:31:32;;;;;;;4.13;1.42;;;7.20;99.90;;;;;;5032417;28;20218;-63
2023/11/07 06:34:00;;;;;;;2.17;1.65;;;7.20;99.90;;;;;;5032784;28;20695;-63
2023/11/07 06:36:27;;;;;;;1.58;1.45;;;7.20;99.90;;;;;;5032685;28;20211;-63
2023/11/07 06:38:55;;;;;;;1.80;1.63;;;7.30;99.90;;;;;;5032676;28;20211;-63
2023/11/07 06:41:21;;;;;;;1.95;1.58;;;7.30;99.90;;;;;;5032062;28;20249;-63
2023/11/07 06:43:50;;;;;;;4.45;1.60;;;7.40;99.90;;;;;;5029630;28;20608;-63
2023/11/07 06:46:18;;;;;;;3.35;1.75;;;7.40;99.90;;;;;;5032234;28;20211;-63
2023/11/07 06:48:46;;;;;;;2.20;1.92;;;7.50;99.90;;;;;;5031102;28;20229;-63
2023/11/07 06:51:14;;;;;;;2.33;1.67;;;7.50;99.90;;;;;;5032564;28;20209;-63
2023/11/07 06:53:42;;;;;;;2.33;2.15;;;7.60;99.90;;;;;;5032536;28;20235;-63
2023/11/07 06:56:09;;;;;;;2.75;1.80;;;7.70;99.90;;;;;;5025066;28;20208;-63
2023/11/07 06:58:36;;;;;;;2.78;2.40;;;7.80;99.90;;;;;;5026125;28;20725;-63
2023/11/07 07:01:05;;;;;;;2.45;1.80;;;7.90;99.90;;;;;;5031684;28;20669;-63
2023/11/07 07:03:32;;;;;;;4.00;3.33;;;8.00;99.90;;;;;;5032011;28;20235;-63
2023/11/07 07:05:59;;;;;;;2.95;2.70;;;8.10;99.90;;;;;;5031749;28;20637;-63
2023/11/07 07:08:26;;;;;;;4.97;2.47;;;8.20;99.90;;;;;;5032056;28;20210;-63
2023/11/07 07:10:54;;;;;;;5.65;1.58;;;8.20;99.90;;;;;;5031609;28;20199;-63
2023/11/07 07:13:21;;;;;;;5.35;2.03;;;8.30;99.90;;;;;;5031107;28;20237;-64
2023/11/07 07:15:50;;;;;;;2.42;2.22;;;8.40;99.90;;;;;;5031556;28;20207;-63
2023/11/07 07:18:22;;;;;;;2.70;1.95;;;8.40;99.90;;;;;;5031732;28;20630;-63
2023/11/07 07:20:53;;;;;;;3.22;2.20;;;8.60;99.90;;;;;;5031594;28;20294;-63
2023/11/07 07:23:24;;;;;;;2.17;1.70;;;8.60;99.90;;;;;;5031097;28;20791;-63
2023/11/07 07:25:51;;;;;;;1.77;1.67;;;8.70;99.90;;;;;;5031336;28;20237;-63
2023/11/07 07:28:19;;;;;;;1.90;1.80;;;8.70;99.90;;;;;;5031834;28;20199;-63
2023/11/07 07:30:47;;;;;;;1.83;1.60;;;8.70;99.90;;;;;;5031581;28;20230;-64
2023/11/07 07:33:15;;;;;;;1.88;1.30;;;8.80;99.90;;;;;;5030990;28;20598;-63
2023/11/07 07:35:45;;;;;;;1.70;1.60;;;8.90;99.90;;;;;;5031275;28;20215;-63
2023/11/07 07:38:12;;;;;;;1.80;1.70;;;9.00;99.90;;;;;;5031336;28;20450;-63
2023/11/07 07:40:39;;;;;;;1.88;1.70;;;9.00;99.90;;;;;;5031682;28;20207;-63
2023/11/07 07:43:08;;;;;;;3.27;2.70;;;9.10;99.90;;;;;;5031207;28;20231;-63
2023/11/07 07:45:36;;;;;;;2.63;2.43;;;9.10;99.90;;;;;;5031050;28;20536;-64
2023/11/07 07:48:04;;;;;;;3.20;2.90;;;9.10;99.90;;;;;;5031320;28;20453;-63
2023/11/07 07:50:31;;;;;;;3.63;2.87;;;9.10;99.90;;;;;;5031547;28;20445;-63
2023/11/07 07:53:02;;;;;;;2.17;1.90;;;9.20;99.90;;;;;;5031437;28;20463;-64
2023/11/07 07:55:29;;;;;;;1.60;1.50;;;9.20;99.90;;;;;;5031198;28;20493;-63
2023/11/07 07:58:00;;;;;;;4.37;1.63;;;9.20;99.90;;;;;;5031560;28;20446;-64
2023/11/07 08:00:30;;;;;;;2.70;1.70;;;9.30;99.90;;;;;;5031513;28;20983;-64
2023/11/07 08:02:58;;;;;;;2.53;1.50;;;9.30;99.90;;;;;;5031300;28;20498;-64
2023/11/07 08:05:24;;;;;;;2.87;1.77;;;9.40;99.90;;;;;;5026519;28;20458;-63
2023/11/07 08:07:51;;;;;;;2.30;2.10;;;9.40;99.90;;;;;;5022658;28;20453;-63
2023/11/07 08:10:22;;;;;;;3.10;2.37;;;9.50;99.90;;;;;;5026960;28;20450;-64
2023/11/07 08:12:50;;;;;;;1.43;1.40;;;9.50;99.90;;;;;;5030825;28;20974;-64
2023/11/07 08:15:17;;;;;;;2.00;1.60;;;9.60;99.90;;;;;;5030367;28;20454;-64
2023/11/07 08:17:44;;;;;;;7.67;1.93;;;9.70;99.90;;;;;;5028352;28;20835;-63
2023/11/07 08:20:15;;;;;;;1.23;1.13;;;9.70;99.90;;;;;;5028508;28;20875;-63
2023/11/07 08:22:42;;;;;;;1.37;1.27;;;9.70;99.90;;;;;;5030530;28;20820;-64
2023/11/07 08:25:10;;;;;;;2.10;0.87;;;9.80;99.90;;;;;;5030349;28;20825;-63
2023/11/07 08:27:39;;;;;;;2.50;1.60;;;9.80;99.90;;;;;;5030278;28;20454;-63
2023/11/07 08:30:14;;;;;;;1.50;1.40;;;9.90;99.90;;;;;;5027885;28;20446;-63
2023/11/07 08:32:42;;;;;;;1.83;1.50;;;9.90;99.90;;;;;;5030565;28;20452;-64
2023/11/07 08:35:11;;;;;;;1.23;1.20;;;9.90;99.90;;;;;;5028209;28;20836;-64
2023/11/07 08:37:38;;;;;;;1.50;1.40;;;9.90;99.90;;;;;;5029845;28;20492;-64
2023/11/07 08:40:08;;;;;;;1.90;1.80;;;9.90;99.90;;;;;;5029339;28;20456;-64
2023/11/07 08:42:35;;;;;;;1.40;1.30;;;10.00;99.90;;;;;;5026581;28;20453;-63
2023/11/07 08:45:04;;;;;;;1.83;1.73;;;10.00;99.90;;;;;;5029367;28;20496;-64
2023/11/07 08:47:31;;;;;;;2.10;1.77;;;10.00;99.90;;;;;;5027945;28;20542;-64
2023/11/07 08:49:58;;;;;;;1.77;1.17;;;10.00;99.90;;;;;;5028368;28;20820;-64
2023/11/07 08:52:25;;;;;;;2.63;1.60;;;10.00;99.90;;;;;;5026357;28;20449;-64
2023/11/07 08:54:52;;;;;;;1.27;1.17;;;10.00;99.90;;;;;;5021041;28;20464;-63
2023/11/07 08:57:19;;;;;;;1.30;1.10;;;10.00;99.90;;;;;;5028089;28;20458;-63
2023/11/07 08:59:46;;;;;;;1.73;1.20;;;10.00;99.90;;;;;;5029923;28;20508;-63
2023/11/07 09:02:15;;;;;;;1.80;1.70;;;10.00;99.90;;;;;;5026266;28;20453;-64
2023/11/07 09:04:43;;;;;;;1.57;1.53;;;10.10;99.90;;;;;;5030109;28;20497;-64
2023/11/07 09:07:12;;;;;;;1.17;1.00;;;10.10;99.90;;;;;;5022175;28;20836;-64
2023/11/07 09:09:39;;;;;;;1.37;1.27;;;10.20;99.90;;;;;;5030033;28;20511;-63
2023/11/07 09:12:07;;;;;;;2.63;1.23;;;10.30;99.90;;;;;;5026319;28;21177;-63
2023/11/07 09:14:35;;;;;;;2.60;1.30;;;10.30;99.90;;;;;;5029475;28;20552;-64
2023/11/07 09:17:02;;;;;;;1.37;1.13;;;10.40;99.90;;;;;;5028392;28;20461;-63
2023/11/07 09:19:31;;;;;;;0.93;0.90;;;10.40;99.90;;;;;;5032090;28;20866;-64
2023/11/07 09:22:00;;;;;;;1.80;1.00;;;10.40;99.90;;;;;;5031701;28;20536;-64
2023/11/07 09:24:26;;;;;;;1.10;1.07;;;10.50;99.90;;;;;;5033100;28;20489;-63
2023/11/07 09:26:54;;;;;;;2.70;2.00;;;10.50;99.90;;;;;;5030086;28;20540;-63
2023/11/07 09:29:21;;;;;;;1.23;1.10;;;10.50;99.90;;;;;;5029237;28;20458;-63
2023/11/07 09:31:48;;;;;;;1.13;1.03;;;10.50;99.90;;;;;;5028626;28;20541;-64
2023/11/07 09:34:15;;;;;;;1.90;1.80;;;10.40;99.90;;;;;;5032959;28;20462;-63
2023/11/07 09:36:44;;;;;;;1.10;1.00;;;10.40;99.90;;;;;;5021868;28;20508;-63
2023/11/07 09:39:10;;;;;;;2.20;0.83;;;10.40;99.90;;;;;;5032850;28;20898;-64
2023/11/07 09:41:39;;;;;;;1.23;1.07;;;10.40;99.90;;;;;;5032522;28;20493;-64
2023/11/07 09:44:10;;;;;;;2.10;1.13;;;10.50;99.90;;;;;;5032568;28;20493;-63
2023/11/07 09:46:38;;;;;;;1.10;1.00;;;10.50;99.90;;;;;;5023568;28;20461;-63
2023/11/07 09:49:07;;;;;;;3.33;1.23;;;10.50;99.90;;;;;;5028211;28;20841;-63
2023/11/07 09:51:36;;;;;;;1.83;1.13;;;10.60;99.90;;;;;;5031195;28;20561;-63
2023/11/07 09:54:07;;;;;;;1.20;0.90;;;10.60;99.90;;;;;;5032616;28;20460;-64
2023/11/07 09:56:39;;;;;;;0.70;0.70;;;10.70;99.90;;;;;;5023024;28;20458;-64
2023/11/07 09:59:15;;;;;;;3.10;1.00;;;10.80;99.90;;;;;;5032890;28;20434;-64
2023/11/07 10:01:42;;;;;;;2.40;1.10;;;11.00;99.90;;;;;;5032046;28;20552;-64
2023/11/07 10:04:09;;;;;;;0.87;0.80;;;11.00;99.90;;;;;;5031734;28;20489;-64
2023/11/07 10:06:36;;;;;;;1.13;0.70;;;11.10;99.90;;;;;;5028838;28;20537;-63
2023/11/07 10:09:05;;;;;;;0.67;0.67;;;11.10;99.90;;;;;;5032601;28;20446;-64
2023/11/07 10:11:44;;;;;;;0.70;0.70;;;11.10;99.90;;;;;;5032507;28;20449;-63
2023/11/07 10:14:12;;;;;;;1.90;0.70;;;11.10;99.90;;;;;;5031537;28;20535;-64
2023/11/07 10:16:40;;;;;;;1.03;0.60;;;11.10;99.90;;;;;;5031151;28;20450;-64
2023/11/07 10:19:12;;;;;;;1.80;0.70;;;11.00;99.90;;;;;;5031663;28;20521;-64
2023/11/07 10:21:39;;;;;;;0.60;0.60;;;11.00;99.90;;;;;;5031378;28;20529;-64
2023/11/07 10:24:07;;;;;;;1.80;0.80;;;10.90;99.90;;;;;;5031257;28;20485;-64
2023/11/07 10:26:34;;;;;;;1.90;0.90;;;10.90;99.90;;;;;;5031023;28;20525;-64
2023/11/07 10:29:13;;;;;;;1.70;1.60;;;10.90;99.90;;;;;;5031079;28;20524;-64
2023/11/07 10:31:41;;;;;;;1.00;0.90;;;10.90;99.90;;;;;;5030588;28;20532;-64
2023/11/07 10:34:15;;;;;;;0.67;0.60;;;10.90;99.90;;;;;;5030458;28;20473;-64
2023/11/07 10:36:43;;;;;;;1.20;1.10;;;10.80;99.90;;;;;;5030701;28;20526;-64
2023/11/07 10:39:17;;;;;;;0.70;0.70;;;10.80;99.90;;;;;;5031223;28;20452;-64
2023/11/07 10:41:45;;;;;;;2.40;0.60;;;10.80;99.90;;;;;;5031015;28;20445;-63
2023/11/07 10:44:24;;;;;;;0.63;0.63;;;10.80;99.90;;;;;;5030525;28;20492;-64
2023/11/07 10:46:51;;;;;;;0.80;0.80;;;10.90;99.90;;;;;;5030342;28;20446;-64
2023/11/07 10:49:19;;;;;;;5.83;1.10;;;10.80;99.90;;;;;;5029027;28;20454;-63
2023/11/07 10:51:46;;;;;;;0.50;0.50;;;10.80;99.90;;;;;;5029913;28;20824;-64
2023/11/07 10:54:13;;;;;;;2.00;1.10;;;10.80;99.90;;;;;;5024445;28;20470;-63
2023/11/07 10:56:44;;;;;;;0.80;0.80;;;10.80;99.90;;;;;;5028461;28;20456;-64
2023/11/07 10:59:16;;;;;;;1.80;1.57;;;10.80;99.90;;;;;;5030725;28;20438;-64
2023/11/07 11:01:46;;;;;;;2.40;1.40;;;10.80;99.90;;;;;;5029240;28;20438;-64
2023/11/07 11:04:14;;;;;;;0.93;0.93;;;10.80;99.90;;;;;;5030211;28;20482;-64
2023/11/07 11:06:45;;;;;;;0.97;0.97;;;10.90;99.90;;;;;;5029796;28;20446;-64
2023/11/07 11:09:17;;;;;;;1.13;1.13;;;10.90;99.90;;;;;;5030579;28;20442;-64
2023/11/07 11:11:49;;;;;;;0.60;0.60;;;10.90;99.90;;;;;;5030632;28;20821;-64
2023/11/07 11:14:16;;;;;;;1.90;0.80;;;10.90;99.90;;;;;;4993766;28;1078694;-64
2023/11/07 11:16:45;;;;;;;0.70;0.70;;;10.90;99.90;;;;;;5030785;28;20235;-63
2023/11/07 11:19:23;;;;;;;1.40;0.93;;;10.80;99.90;;;;;;5031225;28;20498;-64
2023/11/07 11:21:58;;;;;;;1.63;1.37;;;10.80;99.90;;;;;;5031128;28;20460;-63
2023/11/07 11:24:39;;;;;;;1.20;1.20;;;10.90;99.90;;;;;;5030765;28;20576;-63
2023/11/07 11:27:14;;;;;;;1.30;1.20;;;10.90;99.90;;;;;;5016334;28;20442;-64
2023/11/07 11:29:46;;;;;;;0.80;0.80;;;10.90;99.90;;;;;;5031178;28;20445;-64
2023/11/07 11:32:26;;;;;;;2.27;0.80;;;10.80;99.90;;;;;;5031100;28;20453;-64
2023/11/07 11:34:58;;;;;;;0.97;0.80;;;10.80;99.90;;;;;;5030821;28;20837;-64
2023/11/07 11:37:24;;;;;;;1.00;1.00;;;10.80;99.90;;;;;;5030836;28;20488;-64
2023/11/07 11:39:53;;;;;;;0.70;0.70;;;10.80;99.90;;;;;;5030651;28;20533;-63
2023/11/07 11:42:21;;;;;;;0.80;0.73;;;10.70;99.90;;;;;;5030243;28;20459;-63
2023/11/07 11:45:26;;;;;;;1.10;1.00;;;10.80;99.90;;;;;;5030348;28;20580;-63
2023/11/07 11:47:52;;;;;;;0.80;0.80;;;10.80;99.90;;;;;;5030763;28;21055;-63
2023/11/07 11:50:20;;;;;;;0.73;0.73;;;10.90;99.90;;;;;;5030817;28;20508;-64
2023/11/07 11:52:47;;;;;;;1.40;1.30;;;11.10;99.90;;;;;;5030769;28;20442;-64
2023/11/07 11:55:15;;;;;;;1.33;0.63;;;11.30;99.90;;;;;;5030850;28;20465;-63
2023/11/07 11:58:15;;;;;;;1.07;1.07;;;11.50;99.90;;;;;;5030645;28;20446;-63
2023/11/07 12:00:45;;;;;;;1.07;0.70;;;11.70;99.90;;;;;;5030461;28;20477;-64
2023/11/07 12:03:18;;;;;;;1.00;0.90;;;11.90;99.90;;;;;;5030867;28;20462;-65
2023/11/07 12:06:01;;;;;;;1.60;0.53;;;12.00;99.90;;;;;;5030429;28;20485;-65
2023/11/07 12:08:36;;;;;;;0.87;0.77;;;12.10;99.90;;;;;;5030708;28;20438;-64
2023/11/07 12:11:04;;;;;;;0.80;0.80;;;12.00;99.90;;;;;;5030392;28;20490;-63
2023/11/07 12:13:33;;;;;;;1.43;0.70;;;12.00;99.90;;;;;;5030558;28;21014;-64
2023/11/07 12:16:18;;;;;;;0.77;0.77;;;11.90;99.90;;;;;;5068271;22;21409;-63
2023/11/07 12:18:47;;;;;;;0.80;0.80;;;11.80;99.90;;;;;;5050011;28;20440;-64
2023/11/07 12:21:24;;;;;;;0.97;0.70;;;11.70;99.90;;;;;;5050521;28;20440;-64
2023/11/07 12:23:53;;;;;;;0.83;0.73;;;11.60;99.90;;;;;;5050666;28;20448;-64
2023/11/07 12:26:20;;;;;;;1.33;0.97;;;11.60;99.90;;;;;;5050086;28;20480;-64
2023/11/07 12:28:49;;;;;;;2.20;1.40;;;11.50;99.90;;;;;;5050482;28;20799;-64
2023/11/07 12:31:16;;;;;;;2.77;1.07;;;11.40;99.90;;;;;;5050923;28;20452;-64
2023/11/07 12:33:43;;;;;;;1.20;1.10;;;11.40;99.90;;;;;;5050827;28;20452;-64
2023/11/07 12:36:13;;;;;;;1.27;1.10;;;11.40;99.90;;;;;;5050464;28;20493;-66
2023/11/07 12:38:41;;;;;;;1.30;1.30;;;11.30;99.90;;;;;;5050486;28;20524;-63
2023/11/07 12:41:10;;;;;;;0.47;0.47;;;11.30;99.90;;;;;;5050449;28;20437;-63
2023/11/07 12:43:40;;;;;;;1.47;1.37;;;11.30;99.90;;;;;;5050193;28;20452;-63
2023/11/07 12:46:12;;;;;;;1.10;1.10;;;11.20;99.90;;;;;;5050077;28;20523;-63
2023/11/07 12:48:39;;;;;;;3.03;1.10;;;11.20;99.90;;;;;;5050195;28;20445;-63
2023/11/07 12:51:08;;;;;;;1.70;1.60;;;11.10;99.90;;;;;;5050231;28;20475;-63
2023/11/07 12:53:46;;;;;;;1.17;1.17;;;11.10;99.90;;;;;;5047999;28;21125;-63
2023/11/07 12:56:16;;;;;;;1.47;1.40;;;11.00;99.90;;;;;;5048195;28;21046;-63
2023/11/07 12:58:43;;;;;;;1.37;1.27;;;11.00;99.90;;;;;;5054271;28;20535;-63